x

Halibut Bank (46146) Wave Buoy

7:00 - Tue 31st Mar 2015 All times are PDT. -7 hours from GMT.

  • Sig Wave height 1.3ft
  • Peak Period 3s
  • Wind
    16mph, 18mph gusts
  • Sea Temp 49°f
  • Luft Temp 47°f
  • Sea Pressure 1013.6mb
  • Halibut Bank
  • Halibut Bank

More Historic Weather Station data

Upgrade to MSW Pro to gain access to the past 30 days of data for over 8000 Wavebouys and Weather Stations around the globe.

Join Pro

Comparision Forecast

View Surf forecast
   
Di 03/31 7:00 1.3ft 3s 16 18 mph 1013.6mb 49f 47f
6:00 1.3ft 3s 13 18 mph 1012.8mb 49f 47f
5:00 2ft 4s 16 18 mph 1012mb 49f 47f
4:00 2.5ft 4s 22 25 mph 1010.8mb 49f 47f
3:00 3ft 4s 27 31 mph 1009.9mb 49f 47f
2:00  -   -  27
mph
- - -
1:00 3ft 4s 27 34 mph 1008.2mb 49f 46f
12:00 0.7ft 2s 27 31 mph 1007.8mb 49f 47f
Mo 03/30 11:00 0.3ft 2s 9 11 mph 1007.6mb 50f 53f
10:00 0.7ft 4s 9 13 mph 1008.1mb 49f 53f
9:00 0.7ft 2s 13 16 mph 1008.5mb 49f 54f
8:00 0.7ft 2s 18
mph
1008.6mb 49f 54f
7:00 0.7ft 3s 16 18 mph 1009.2mb 49f 54f
6:00 1ft 3s 11 13 mph 1009.9mb 49f 53f
5:00 1ft 3s 11 13 mph 1010.6mb 49f 52f
4:00 1.3ft 3s 13 16 mph 1011.6mb 49f 53f
3:00 1.3ft 3s 13 16 mph 1012.8mb 49f 53f
2:00 2ft 3s 18 22 mph 1013.4mb 49f 52f
1:00 2ft 3s 13 18 mph 1014.5mb 49f 51f
12:00 2ft 3s 18 20 mph 1015mb 49f 52f
11:00 2ft 3s 18 20 mph 1015.3mb 49f 52f
10:00 2ft 3s 20 22 mph 1015.2mb 49f 52f
9:00 2ft 3s 20 22 mph 1015.7mb 49f 51f
8:00 2ft 3s 22 25 mph 1015.6mb 49f 52f
7:00 2ft 3s 20 22 mph 1015.8mb 49f 51f
6:00 1.6ft 3s 18 22 mph 1016.2mb 49f 51f
5:00 1.6ft 3s 18 22 mph 1016.6mb 49f 51f
4:00 1.6ft 3s 18 20 mph 1016.8mb 49f 51f
3:00 1.6ft 3s 18 22 mph 1017.4mb 49f 50f
2:00 1.6ft 3s 20 25 mph 1017.8mb 49f 49f
1:00 1.3ft 3s 18 20 mph 1018.3mb 49f 49f
12:00 1ft 3s 11 13 mph 1019.3mb 49f 49f
So 03/29 11:00 1ft 2s 13 18 mph 1019.7mb 49f 49f
10:00 1ft 2s 13 18 mph 1020.2mb 49f 49f
9:00 1ft 2s 13 16 mph 1020.4mb 49f 49f
8:00 1ft 2s 13 16 mph 1020.5mb 49f 49f
7:00 1.3ft 3s 16 18 mph 1020.8mb 49f 49f
6:00 1ft 3s 13 16 mph 1021.2mb 49f 50f
5:00 1.3ft 3s 13 16 mph 1021.4mb 49f 50f
4:00 1.6ft 3s 13 18 mph 1021.7mb 49f 50f
3:00 2ft 3s 16 20 mph 1021.6mb 49f 49f
2:00 2.5ft 4s 18 22 mph 1021.7mb 49f 49f
1:00 3.5ft 4s 20 22 mph 1021.7mb 49f 49f
12:00 3.5ft 4s 22 27 mph 1021.4mb 49f 49f
11:00 4ft 4s 25 29 mph 1021mb 49f 50f
10:00 3.5ft 5s 27 31 mph 1020.7mb 49f 50f
9:00 3.5ft 4s 25 31 mph 1020.3mb 49f 50f
8:00 3.5ft 4s 27 34 mph 1020.1mb 49f 50f
7:00 3.5ft 4s 27 34 mph 1020.2mb 49f 50f
6:00 3.5ft 4s 29 34 mph 1020.5mb 49f 50f
5:00 3ft 4s 29 34 mph 1020.8mb 49f 50f
4:00 2.5ft 4s 27 31 mph 1021.2mb 49f 50f
3:00 2.5ft 4s 27 31 mph 1022mb 49f 50f
2:00 2ft 3s 22 27 mph 1023mb 49f 50f
1:00 1.6ft 3s 22 27 mph 1023.5mb 49f 50f
12:00 1.6ft 3s 20 22 mph 1024.2mb 49f 50f
Sa 03/28 11:00 1.6ft 3s 18 22 mph 1024.5mb 49f 50f
10:00 1.6ft 3s 16 18 mph 1024.8mb 49f 50f
9:00 1.3ft 3s 16 20 mph 1024.9mb 49f 51f
8:00 1.3ft 3s 16 20 mph 1024.8mb 49f 51f
7:00 1ft 2s 11 13 mph 1024.9mb 49f 51f
6:00 0.7ft 2s 13 16 mph 1024.9mb 49f 52f
5:00 1ft 2s 13 16 mph 1024.9mb 50f 52f
4:00 1ft 2s 13 18 mph 1025.1mb 50f 52f
3:00 0.7ft 2s 13
mph
1025mb 50f 51f
2:00 0.3ft 4s 13
mph
1025.3mb 50f 51f
1:00 0.3ft 4s 11 13 mph 1025.4mb 50f 51f
12:00 0.7ft 4s 7 9 mph 1024.5mb 50f 50f
11:00 0.7ft 4s 2 4 mph 1024.1mb 49f 51f
10:00 1ft 3s 4 7 mph 1023.2mb 49f 51f
9:00 1.3ft 4s 4
mph
1022.4mb 49f 50f
8:00 2ft 4s 4 9 mph 1021.1mb 49f 50f
7:00 2.5ft 5s 13 18 mph 1018.9mb 49f 49f
6:00  -   -  25
mph
1017.3mb - 50f
5:00 1.3ft 3s 25 31 mph 1015.3mb 49f 50f
4:00 0.7ft 2s 7 18 mph 1014.8mb 49f 51f
3:00 0.3ft 2s 9 13 mph 1013.4mb 49f 52f
2:00 0.7ft 2s 9 11 mph 1013mb 49f 52f
1:00 0.3ft 2s 13
mph
1012.3mb 48f 52f
12:00 0.7ft 2s 9 11 mph 1011.7mb 49f 54f
Fr 03/27 11:00 0.7ft 2s 13
mph
1011.7mb 49f 52f
10:00 0.7ft 2s 13 16 mph 1011.3mb 49f 53f
9:00 0.7ft 2s 16 20 mph 1010.9mb 49f 53f
8:00 0.7ft 2s 9 13 mph 1011mb 49f 53f
7:00 0.7ft 2s 9
mph
1011.7mb 49f 52f
6:00 0.7ft 2s 13 16 mph 1011.6mb 50f 53f
5:00 0.7ft 2s 9 11 mph 1012.1mb 49f 53f
4:00 0.7ft 2s 13
mph
1012.3mb 50f 53f